Aviation Digital Data Service (ADDS)

Output produced by METARs form (2209 UTC 25 April 2019)
found at http://aviationweather.gov/metar/data/
 
METAR text: KRNT 252153Z 31010KT 10SM CLR 16/05 A3010 RMK AO2 SLP197 T01560050
Conditions at: KRNT (RENTON , WA, US) observed 2153 UTC 25 April 2019
Temperature: 15.6°C (60°F)
Dewpoint: 5.0°C (41°F) [RH = 49%]
Pressure (altimeter): 30.10 inches Hg (1019.4 mb)
[Sea-level pressure: 1019.7 mb]
Winds: from the NW (310 degrees) at 12 MPH (10 knots; 5.1 m/s)
Visibility: 10 or more miles (16+ km)
Ceiling: at least 12,000 feet AGL
Clouds: sky clear below 12,000 feet AGL
Weather: no significant weather observed at this time

METAR text: KRNT 252053Z 30011KT 10SM CLR 15/06 A3011 RMK AO2 SLP202 T01500061 58023
Conditions at: KRNT (RENTON , WA, US) observed 2053 UTC 25 April 2019
Temperature: 15.0°C (59°F)
Dewpoint: 6.1°C (43°F) [RH = 55%]
Pressure (altimeter): 30.11 inches Hg (1019.7 mb)
[Sea-level pressure: 1020.2 mb]
Winds: from the WNW (300 degrees) at 13 MPH (11 knots; 5.7 m/s)
Visibility: 10 or more miles (16+ km)
Ceiling: at least 12,000 feet AGL
Clouds: sky clear below 12,000 feet AGL
Weather: no significant weather observed at this time